sensor_id;sensor_type;location;lat;lon;timestamp;pressure;altitude;pressure_sealevel;temperature;humidity
76321;BME280;65132;52.088;5.402;2023-02-13T00:01:51;103917.16;;;6.80;87.92
76321;BME280;65132;52.088;5.402;2023-02-13T00:04:18;103920.59;;;6.85;87.59
76321;BME280;65132;52.088;5.402;2023-02-13T00:06:45;103925.03;;;6.86;87.75
76321;BME280;65132;52.088;5.402;2023-02-13T00:09:12;103913.47;;;6.83;88.27
76321;BME280;65132;52.088;5.402;2023-02-13T00:11:39;103912.66;;;6.81;88.16
76321;BME280;65132;52.088;5.402;2023-02-13T00:14:06;103912.66;;;6.81;87.70
76321;BME280;65132;52.088;5.402;2023-02-13T00:16:33;103911.72;;;6.82;87.46
76321;BME280;65132;52.088;5.402;2023-02-13T00:19:02;103911.81;;;6.79;87.71
76321;BME280;65132;52.088;5.402;2023-02-13T00:21:28;103906.44;;;6.79;88.14
76321;BME280;65132;52.088;5.402;2023-02-13T00:23:55;103903.66;;;6.82;87.58
76321;BME280;65132;52.088;5.402;2023-02-13T00:26:21;103899.28;;;6.78;88.34
76321;BME280;65132;52.088;5.402;2023-02-13T00:28:48;103907.41;;;6.76;87.84
76321;BME280;65132;52.088;5.402;2023-02-13T00:31:18;103904.69;;;6.76;88.24
76321;BME280;65132;52.088;5.402;2023-02-13T00:33:45;103901.09;;;6.77;87.92
76321;BME280;65132;52.088;5.402;2023-02-13T00:36:15;103893.88;;;6.78;87.96
76321;BME280;65132;52.088;5.402;2023-02-13T00:38:42;103894.78;;;6.78;88.01
76321;BME280;65132;52.088;5.402;2023-02-13T00:41:09;103904.59;;;6.79;87.91
76321;BME280;65132;52.088;5.402;2023-02-13T00:43:36;103893.84;;;6.79;88.81
76321;BME280;65132;52.088;5.402;2023-02-13T00:46:03;103903.69;;;6.80;88.38
76321;BME280;65132;52.088;5.402;2023-02-13T00:48:31;103899.28;;;6.78;87.88
76321;BME280;65132;52.088;5.402;2023-02-13T00:50:58;103897.47;;;6.78;87.69
76321;BME280;65132;52.088;5.402;2023-02-13T00:53:26;103891.31;;;6.75;88.51
76321;BME280;65132;52.088;5.402;2023-02-13T00:55:52;103889.59;;;6.72;87.56
76321;BME280;65132;52.088;5.402;2023-02-13T00:58:19;103895.84;;;6.73;88.35
76321;BME280;65132;52.088;5.402;2023-02-13T01:00:46;103887.81;;;6.71;89.05
76321;BME280;65132;52.088;5.402;2023-02-13T01:03:14;103892.31;;;6.71;88.54
76321;BME280;65132;52.088;5.402;2023-02-13T01:05:41;103885.28;;;6.67;88.67
76321;BME280;65132;52.088;5.402;2023-02-13T01:08:08;103894.19;;;6.69;88.92
76321;BME280;65132;52.088;5.402;2023-02-13T01:10:36;103897.72;;;6.69;89.13
76321;BME280;65132;52.088;5.402;2023-02-13T01:13:02;103889.75;;;6.66;88.94
76321;BME280;65132;52.088;5.402;2023-02-13T01:15:29;103899.56;;;6.69;88.82
76321;BME280;65132;52.088;5.402;2023-02-13T01:17:56;103896.03;;;6.67;88.54
76321;BME280;65132;52.088;5.402;2023-02-13T01:20:23;103890.69;;;6.65;89.87
76321;BME280;65132;52.088;5.402;2023-02-13T01:22:50;103892.50;;;6.65;89.36
76321;BME280;65132;52.088;5.402;2023-02-13T01:25:17;103894.28;;;6.64;88.61
76321;BME280;65132;52.088;5.402;2023-02-13T01:27:43;103888.06;;;6.64;88.92
76321;BME280;65132;52.088;5.402;2023-02-13T01:30:11;103892.53;;;6.63;89.01
76321;BME280;65132;52.088;5.402;2023-02-13T01:32:40;103878.28;;;6.60;88.25
76321;BME280;65132;52.088;5.402;2023-02-13T01:35:06;103881.94;;;6.59;88.77
76321;BME280;65132;52.088;5.402;2023-02-13T01:37:33;103879.19;;;6.60;88.83
76321;BME280;65132;52.088;5.402;2023-02-13T01:40:00;103880.16;;;6.58;89.46
76321;BME280;65132;52.088;5.402;2023-02-13T01:42:30;103883.59;;;6.63;89.50
76321;BME280;65132;52.088;5.402;2023-02-13T01:45:06;103882.69;;;6.62;89.12
76321;BME280;65132;52.088;5.402;2023-02-13T01:47:53;103882.78;;;6.59;88.94
76321;BME280;65132;52.088;5.402;2023-02-13T01:53:18;103867.63;;;6.57;89.11
76321;BME280;65132;52.088;5.402;2023-02-13T01:55:53;103868.47;;;6.59;89.20
76321;BME280;65132;52.088;5.402;2023-02-13T01:58:24;103874.75;;;6.58;88.48
76321;BME280;65132;52.088;5.402;2023-02-13T02:00:52;103878.44;;;6.55;88.76
76321;BME280;65132;52.088;5.402;2023-02-13T02:03:24;103869.28;;;6.61;88.62
76321;BME280;65132;52.088;5.402;2023-02-13T02:05:53;103875.59;;;6.60;88.96
76321;BME280;65132;52.088;5.402;2023-02-13T02:08:21;103871.03;;;6.63;88.22
76321;BME280;65132;52.088;5.402;2023-02-13T02:10:48;103870.06;;;6.64;88.60
76321;BME280;65132;52.088;5.402;2023-02-13T02:13:18;103864.75;;;6.63;88.32
76321;BME280;65132;52.088;5.402;2023-02-13T02:15:46;103866.66;;;6.59;88.43
76321;BME280;65132;52.088;5.402;2023-02-13T02:18:21;103863.94;;;6.59;88.69
76321;BME280;65132;52.088;5.402;2023-02-13T02:26:52;103860.31;;;6.62;88.66
76321;BME280;65132;52.088;5.402;2023-02-13T02:35:36;103860.31;;;6.62;88.91
76321;BME280;65132;52.088;5.402;2023-02-13T02:41:26;103866.47;;;6.65;88.23
76321;BME280;65132;52.088;5.402;2023-02-13T02:44:03;103869.16;;;6.65;89.13
76321;BME280;65132;52.088;5.402;2023-02-13T02:46:36;103864.75;;;6.63;89.04
76321;BME280;65132;52.088;5.402;2023-02-13T02:49:11;103865.63;;;6.63;89.04
76321;BME280;65132;52.088;5.402;2023-02-13T02:54:48;103863.75;;;6.67;88.94
76321;BME280;65132;52.088;5.402;2023-02-13T02:57:20;103849.44;;;6.65;88.77
76321;BME280;65132;52.088;5.402;2023-02-13T02:59:49;103854.88;;;6.63;88.06
76321;BME280;65132;52.088;5.402;2023-02-13T03:02:18;103850.34;;;6.65;88.50
76321;BME280;65132;52.088;5.402;2023-02-13T03:04:47;103857.47;;;6.66;88.18
76321;BME280;65132;52.088;5.402;2023-02-13T03:07:17;103852.97;;;6.67;88.74
76321;BME280;65132;52.088;5.402;2023-02-13T03:09:48;103851.28;;;6.63;88.91
76321;BME280;65132;52.088;5.402;2023-02-13T03:12:20;103860.31;;;6.62;89.64
76321;BME280;65132;52.088;5.402;2023-02-13T03:14:48;103851.28;;;6.63;89.19
76321;BME280;65132;52.088;5.402;2023-02-13T03:17:16;103852.19;;;6.63;88.84
76321;BME280;65132;52.088;5.402;2023-02-13T03:25:17;103855.03;;;6.59;89.05
76321;BME280;65132;52.088;5.402;2023-02-13T03:27:54;103858.53;;;6.61;89.13
76321;BME280;65132;52.088;5.402;2023-02-13T03:33:55;103863.03;;;6.60;89.25
76321;BME280;65132;52.088;5.402;2023-02-13T03:39:06;103851.28;;;6.63;89.43
76321;BME280;65132;52.088;5.402;2023-02-13T03:41:41;103854.94;;;6.62;88.96
76321;BME280;65132;52.088;5.402;2023-02-13T03:44:16;103855.94;;;6.58;88.82
76321;BME280;65132;52.088;5.402;2023-02-13T03:46:46;103864.91;;;6.58;89.46
76321;BME280;65132;52.088;5.402;2023-02-13T03:49:21;103854.22;;;6.55;89.43
76321;BME280;65132;52.088;5.402;2023-02-13T03:51:53;103855.84;;;6.61;89.59
76321;BME280;65132;52.088;5.402;2023-02-13T03:54:29;103860.31;;;6.62;89.14
76321;BME280;65132;52.088;5.402;2023-02-13T03:56:58;103860.34;;;6.60;89.38
76321;BME280;65132;52.088;5.402;2023-02-13T03:59:29;103861.25;;;6.59;88.92
76321;BME280;65132;52.088;5.402;2023-02-13T04:01:59;103855.03;;;6.59;89.80
76321;BME280;65132;52.088;5.402;2023-02-13T04:04:33;103864.94;;;6.57;90.49
76321;BME280;65132;52.088;5.402;2023-02-13T04:07:07;103852.34;;;6.59;90.62
76321;BME280;65132;52.088;5.402;2023-02-13T04:09:38;103854.19;;;6.57;89.81
76321;BME280;65132;52.088;5.402;2023-02-13T04:14:45;103851.50;;;6.57;89.56
76321;BME280;65132;52.088;5.402;2023-02-13T04:17:36;103846.09;;;6.57;89.73
76321;BME280;65132;52.088;5.402;2023-02-13T04:20:05;103848.84;;;6.55;89.36
76321;BME280;65132;52.088;5.402;2023-02-13T04:22:32;103847.06;;;6.54;89.88
76321;BME280;65132;52.088;5.402;2023-02-13T04:24:59;103846.97;;;6.57;89.70
76321;BME280;65132;52.088;5.402;2023-02-13T04:27:26;103853.13;;;6.61;89.71
76321;BME280;65132;52.088;5.402;2023-02-13T04:29:53;103846.09;;;6.57;89.43
76321;BME280;65132;52.088;5.402;2023-02-13T04:32:19;103853.25;;;6.58;90.20
76321;BME280;65132;52.088;5.402;2023-02-13T04:34:47;103854.19;;;6.57;89.92
76321;BME280;65132;52.088;5.402;2023-02-13T04:37:13;103855.22;;;6.51;90.63
76321;BME280;65132;52.088;5.402;2023-02-13T04:39:40;103857.81;;;6.54;90.53
76321;BME280;65132;52.088;5.402;2023-02-13T04:42:06;103849.81;;;6.53;90.28
76321;BME280;65132;52.088;5.402;2023-02-13T04:44:33;103850.66;;;6.55;90.66
76321;BME280;65132;52.088;5.402;2023-02-13T04:46:59;103850.56;;;6.58;90.05
76321;BME280;65132;52.088;5.402;2023-02-13T04:49:27;103855.03;;;6.57;90.45
76321;BME280;65132;52.088;5.402;2023-02-13T04:51:54;103851.44;;;6.58;90.13
76321;BME280;65132;52.088;5.402;2023-02-13T04:54:20;103848.84;;;6.55;89.84
76321;BME280;65132;52.088;5.402;2023-02-13T04:56:47;103845.16;;;6.58;89.77
76321;BME280;65132;52.088;5.402;2023-02-13T04:59:13;103834.34;;;6.59;90.37
76321;BME280;65132;52.088;5.402;2023-02-13T05:01:39;103833.56;;;6.56;89.66
76321;BME280;65132;52.088;5.402;2023-02-13T05:04:06;103829.06;;;6.56;90.18
76321;BME280;65132;52.088;5.402;2023-02-13T05:06:32;103826.44;;;6.55;89.64
76321;BME280;65132;52.088;5.402;2023-02-13T05:08:59;103826.34;;;6.58;89.41
76321;BME280;65132;52.088;5.402;2023-02-13T05:11:25;103824.69;;;6.54;90.30
76321;BME280;65132;52.088;5.402;2023-02-13T05:13:52;103824.75;;;6.51;91.00
76321;BME280;65132;52.088;5.402;2023-02-13T05:16:18;103821.22;;;6.49;90.29
76321;BME280;65132;52.088;5.402;2023-02-13T05:18:45;103821.16;;;6.52;90.33
76321;BME280;65132;52.088;5.402;2023-02-13T05:21:11;103815.84;;;6.49;90.60
76321;BME280;65132;52.088;5.402;2023-02-13T05:23:37;103817.66;;;6.48;90.31
76321;BME280;65132;52.088;5.402;2023-02-13T05:26:04;103830.19;;;6.49;90.43
76321;BME280;65132;52.088;5.402;2023-02-13T05:28:31;103816.63;;;6.52;90.00
76321;BME280;65132;52.088;5.402;2023-02-13T05:30:57;103815.66;;;6.55;89.69
76321;BME280;65132;52.088;5.402;2023-02-13T05:33:25;103815.66;;;6.55;89.75
76321;BME280;65132;52.088;5.402;2023-02-13T05:35:52;103820.16;;;6.54;89.44
76321;BME280;65132;52.088;5.402;2023-02-13T05:38:18;103819.22;;;6.57;89.70
76321;BME280;65132;52.088;5.402;2023-02-13T05:40:44;103811.19;;;6.55;88.88
76321;BME280;65132;52.088;5.402;2023-02-13T05:43:11;103817.34;;;6.59;88.98
76321;BME280;65132;52.088;5.402;2023-02-13T05:45:38;103824.38;;;6.63;88.13
76321;BME280;65132;52.088;5.402;2023-02-13T05:48:04;103810.88;;;6.64;88.22
76321;BME280;65132;52.088;5.402;2023-02-13T05:50:31;103810.88;;;6.64;87.88
76321;BME280;65132;52.088;5.402;2023-02-13T05:52:57;103826.13;;;6.65;88.81
76321;BME280;65132;52.088;5.402;2023-02-13T05:55:24;103818.00;;;6.67;88.20
76321;BME280;65132;52.088;5.402;2023-02-13T05:57:55;103808.16;;;6.66;88.57
76321;BME280;65132;52.088;5.402;2023-02-13T06:00:21;103810.81;;;6.67;88.65
76321;BME280;65132;52.088;5.402;2023-02-13T06:02:48;103811.88;;;6.62;89.02
76321;BME280;65132;52.088;5.402;2023-02-13T06:05:14;103809.22;;;6.60;89.89
76321;BME280;65132;52.088;5.402;2023-02-13T06:07:41;103817.31;;;6.60;89.95
76321;BME280;65132;52.088;5.402;2023-02-13T06:10:08;103819.09;;;6.60;89.34
76321;BME280;65132;52.088;5.402;2023-02-13T06:12:35;103816.38;;;6.61;89.21
76321;BME280;65132;52.088;5.402;2023-02-13T06:15:01;103822.69;;;6.60;89.30
76321;BME280;65132;52.088;5.402;2023-02-13T06:17:28;103822.59;;;6.63;89.87
76321;BME280;65132;52.088;5.402;2023-02-13T06:19:54;103818.16;;;6.61;89.77
76321;BME280;65132;52.088;5.402;2023-02-13T06:22:20;103819.06;;;6.61;89.90
76321;BME280;65132;52.088;5.402;2023-02-13T06:24:47;103816.47;;;6.58;90.26
76321;BME280;65132;52.088;5.402;2023-02-13T06:27:13;103822.75;;;6.59;90.10
76321;BME280;65132;52.088;5.402;2023-02-13T06:29:40;103824.59;;;6.57;90.67
76321;BME280;65132;52.088;5.402;2023-02-13T06:32:06;103829.91;;;6.58;90.33
76321;BME280;65132;52.088;5.402;2023-02-13T06:34:33;103827.19;;;6.60;90.37
76321;BME280;65132;52.088;5.402;2023-02-13T06:36:59;103821.75;;;6.61;90.79
76321;BME280;65132;52.088;5.402;2023-02-13T06:39:25;103827.28;;;6.57;90.60
76321;BME280;65132;52.088;5.402;2023-02-13T06:41:52;103825.50;;;6.56;90.32
76321;BME280;65132;52.088;5.402;2023-02-13T06:44:18;103829.06;;;6.56;90.51
76321;BME280;65132;52.088;5.402;2023-02-13T06:46:46;103830.88;;;6.56;90.82
76321;BME280;65132;52.088;5.402;2023-02-13T06:49:13;103831.91;;;6.52;91.06
76321;BME280;65132;52.088;5.402;2023-02-13T06:51:39;103823.91;;;6.50;91.37
76321;BME280;65132;52.088;5.402;2023-02-13T06:54:05;103829.19;;;6.53;91.38
76321;BME280;65132;52.088;5.402;2023-02-13T06:56:32;103825.63;;;6.51;91.05
76321;BME280;65132;52.088;5.402;2023-02-13T06:58:58;103830.22;;;6.48;91.19
76321;BME280;65132;52.088;5.402;2023-02-13T07:01:25;103834.66;;;6.50;91.31
76321;BME280;65132;52.088;5.402;2023-02-13T07:03:51;103837.34;;;6.50;91.14
76321;BME280;65132;52.088;5.402;2023-02-13T07:06:20;103832.91;;;6.48;91.23
76321;BME280;65132;52.088;5.402;2023-02-13T07:08:47;103837.34;;;6.50;90.95
76321;BME280;65132;52.088;5.402;2023-02-13T07:11:18;103841.69;;;6.54;91.23
76321;BME280;65132;52.088;5.402;2023-02-13T07:13:45;103845.25;;;6.55;91.64
76321;BME280;65132;52.088;5.402;2023-02-13T07:16:11;103842.56;;;6.55;91.80
76321;BME280;65132;52.088;5.402;2023-02-13T07:18:38;103851.59;;;6.54;91.47
76321;BME280;65132;52.088;5.402;2023-02-13T07:21:04;103846.16;;;6.55;92.16
76321;BME280;65132;52.088;5.402;2023-02-13T07:23:32;103848.84;;;6.55;91.32
76321;BME280;65132;52.088;5.402;2023-02-13T07:25:59;103849.66;;;6.59;91.75
76321;BME280;65132;52.088;5.402;2023-02-13T07:28:27;103846.81;;;6.63;91.10
76321;BME280;65132;52.088;5.402;2023-02-13T07:30:54;103831.56;;;6.64;90.94
76321;BME280;65132;52.088;5.402;2023-02-13T07:33:22;103832.34;;;6.67;91.28
76321;BME280;65132;52.088;5.402;2023-02-13T07:35:50;103843.69;;;6.77;91.12
76321;BME280;65132;52.088;5.402;2023-02-13T07:38:17;103841.16;;;6.71;91.09
76321;BME280;65132;52.088;5.402;2023-02-13T07:40:44;103840.22;;;6.73;90.88
76321;BME280;65132;52.088;5.402;2023-02-13T07:43:11;103828.50;;;6.76;90.11
76321;BME280;65132;52.088;5.402;2023-02-13T07:45:38;103842.59;;;6.84;90.71
76321;BME280;65132;52.088;5.402;2023-02-13T07:48:05;103837.88;;;6.90;90.52
76321;BME280;65132;52.088;5.402;2023-02-13T07:50:31;103834.13;;;6.96;90.03
76321;BME280;65132;52.088;5.402;2023-02-13T07:53:00;103849.69;;;7.14;89.26
76321;BME280;65132;52.088;5.402;2023-02-13T07:55:29;103850.31;;;7.22;88.91
76321;BME280;65132;52.088;5.402;2023-02-13T07:57:56;103846.50;;;7.29;88.71
76321;BME280;65132;52.088;5.402;2023-02-13T08:00:22;103857.63;;;7.46;87.83
76321;BME280;65132;52.088;5.402;2023-02-13T08:02:49;103852.94;;;7.51;87.57
76321;BME280;65132;52.088;5.402;2023-02-13T08:05:15;103859.84;;;7.60;86.79
76321;BME280;65132;52.088;5.402;2023-02-13T08:07:43;103866.78;;;7.67;87.36
76321;BME280;65132;52.088;5.402;2023-02-13T08:10:11;103862.75;;;7.80;86.42
76321;BME280;65132;52.088;5.402;2023-02-13T08:12:38;103863.63;;;7.80;86.33
76321;BME280;65132;52.088;5.402;2023-02-13T08:15:05;103876.63;;;7.94;85.67
76321;BME280;65132;52.088;5.402;2023-02-13T08:17:32;103866.84;;;7.91;85.68
76321;BME280;65132;52.088;5.402;2023-02-13T08:19:59;103871.25;;;7.94;85.57
76321;BME280;65132;52.088;5.402;2023-02-13T08:22:25;103870.47;;;7.90;85.32
76321;BME280;65132;52.088;5.402;2023-02-13T08:24:52;103880.78;;;8.04;85.78
76321;BME280;65132;52.088;5.402;2023-02-13T08:27:18;103876.03;;;8.10;84.82
76321;BME280;65132;52.088;5.402;2023-02-13T08:29:45;103871.38;;;8.15;84.91
76321;BME280;65132;52.088;5.402;2023-02-13T08:32:12;103860.09;;;8.04;85.79
76321;BME280;65132;52.088;5.402;2023-02-13T08:34:38;103869.59;;;8.14;85.43
76321;BME280;65132;52.088;5.402;2023-02-13T08:37:04;103867.84;;;8.13;85.14
76321;BME280;65132;52.088;5.402;2023-02-13T08:39:31;103873.72;;;8.26;84.28
76321;BME280;65132;52.088;5.402;2023-02-13T08:41:57;103853.97;;;8.25;84.26
76321;BME280;65132;52.088;5.402;2023-02-13T08:44:24;103864.72;;;8.50;84.06
76321;BME280;65132;52.088;5.402;2023-02-13T08:46:51;103865.84;;;8.68;83.50
76321;BME280;65132;52.088;5.402;2023-02-13T08:49:17;103872.91;;;8.95;81.89
76321;BME280;65132;52.088;5.402;2023-02-13T08:51:44;103876.72;;;8.89;82.54
76321;BME280;65132;52.088;5.402;2023-02-13T08:54:10;103873.72;;;8.97;81.87
76321;BME280;65132;52.088;5.402;2023-02-13T08:56:37;103874.78;;;8.93;82.14
76321;BME280;65132;52.088;5.402;2023-02-13T08:59:03;103874.63;;;9.40;79.72
76321;BME280;65132;52.088;5.402;2023-02-13T09:01:30;103873.59;;;9.44;80.23
76321;BME280;65132;52.088;5.402;2023-02-13T09:03:57;103877.34;;;9.40;80.62
76321;BME280;65132;52.088;5.402;2023-02-13T09:06:24;103882.81;;;9.39;80.17
76321;BME280;65132;52.088;5.402;2023-02-13T09:08:51;103868.97;;;9.68;79.22
76321;BME280;65132;52.088;5.402;2023-02-13T09:11:17;103864.59;;;10.66;75.67
76321;BME280;65132;52.088;5.402;2023-02-13T09:13:43;103870.28;;;10.21;76.81
76321;BME280;65132;52.088;5.402;2023-02-13T09:16:12;103863.59;;;10.68;75.79
76321;BME280;65132;52.088;5.402;2023-02-13T09:18:39;103870.22;;;10.23;77.05
76321;BME280;65132;52.088;5.402;2023-02-13T09:21:07;103880.47;;;9.73;77.34
76321;BME280;65132;52.088;5.402;2023-02-13T09:23:36;103889.59;;;9.49;79.37
76321;BME280;65132;52.088;5.402;2023-02-13T09:26:05;103884.75;;;9.79;77.98
76321;BME280;65132;52.088;5.402;2023-02-13T09:28:33;103877.41;;;10.02;77.17
76321;BME280;65132;52.088;5.402;2023-02-13T09:31:11;103867.72;;;9.97;76.56
76321;BME280;65132;52.088;5.402;2023-02-13T09:33:38;103860.47;;;10.96;74.18
76321;BME280;65132;52.088;5.402;2023-02-13T09:36:06;103877.03;;;10.31;75.53
76321;BME280;65132;52.088;5.402;2023-02-13T09:38:33;103864.38;;;10.52;75.04
76321;BME280;65132;52.088;5.402;2023-02-13T09:41:10;103864.75;;;11.00;73.63
76321;BME280;65132;52.088;5.402;2023-02-13T09:46:34;103865.72;;;10.99;72.71
76321;BME280;65132;52.088;5.402;2023-02-13T09:49:10;103861.69;;;11.08;72.17
76321;BME280;65132;52.088;5.402;2023-02-13T09:51:40;103859.72;;;10.93;71.98
76321;BME280;65132;52.088;5.402;2023-02-13T09:54:13;103857.03;;;11.47;71.32
76321;BME280;65132;52.088;5.402;2023-02-13T10:02:07;103866.09;;;12.82;65.21
76321;BME280;65132;52.088;5.402;2023-02-13T10:04:59;103859.81;;;13.75;63.45
76321;BME280;65132;52.088;5.402;2023-02-13T10:10:57;103858.31;;;12.92;64.93
76321;BME280;65132;52.088;5.402;2023-02-13T10:16:26;103862.59;;;10.90;71.97
76321;BME280;65132;52.088;5.402;2023-02-13T10:19:31;103861.47;;;10.94;72.36
76321;BME280;65132;52.088;5.402;2023-02-13T10:22:12;103859.44;;;11.53;70.37
76321;BME280;65132;52.088;5.402;2023-02-13T10:24:47;103865.22;;;12.97;66.26
76321;BME280;65132;52.088;5.402;2023-02-13T10:27:21;103861.59;;;11.99;68.63
76321;BME280;65132;52.088;5.402;2023-02-13T10:30:02;103859.50;;;12.71;66.78
76321;BME280;65132;52.088;5.402;2023-02-13T10:35:29;103860.72;;;11.64;69.52
76321;BME280;65132;52.088;5.402;2023-02-13T10:37:58;103863.44;;;12.65;65.74
76321;BME280;65132;52.088;5.402;2023-02-13T10:40:36;103855.22;;;12.82;64.49
76321;BME280;65132;52.088;5.402;2023-02-13T10:43:07;103855.28;;;12.65;65.80
76321;BME280;65132;52.088;5.402;2023-02-13T10:45:52;103853.16;;;13.65;61.84
76321;BME280;65132;52.088;5.402;2023-02-13T10:51:49;103844.59;;;13.26;63.17
76321;BME280;65132;52.088;5.402;2023-02-13T11:02:27;103838.94;;;15.58;55.84
76321;BME280;65132;52.088;5.402;2023-02-13T11:04:58;103833.41;;;15.46;57.51
76321;BME280;65132;52.088;5.402;2023-02-13T11:07:26;103829.97;;;15.83;56.02
76321;BME280;65132;52.088;5.402;2023-02-13T11:09:58;103820.72;;;15.18;55.95
76321;BME280;65132;52.088;5.402;2023-02-13T11:14:58;103815.44;;;15.83;54.94
76321;BME280;65132;52.088;5.402;2023-02-13T11:17:28;103823.53;;;16.09;53.43
76321;BME280;65132;52.088;5.402;2023-02-13T11:19:59;103825.50;;;15.95;53.83
76321;BME280;65132;52.088;5.402;2023-02-13T11:24:59;103805.75;;;17.51;50.61
76321;BME280;65132;52.088;5.402;2023-02-13T11:27:36;103807.16;;;19.03;46.40
76321;BME280;65132;52.088;5.402;2023-02-13T11:30:06;103802.31;;;17.95;47.72
76321;BME280;65132;52.088;5.402;2023-02-13T11:32:36;103800.63;;;16.74;51.01
76321;BME280;65132;52.088;5.402;2023-02-13T11:35:26;103805.06;;;15.34;55.56
76321;BME280;65132;52.088;5.402;2023-02-13T11:40:43;103802.50;;;16.49;53.16
76321;BME280;65132;52.088;5.402;2023-02-13T11:43:30;103786.22;;;17.90;48.88
76321;BME280;65132;52.088;5.402;2023-02-13T11:46:07;103785.97;;;18.94;46.15
76321;BME280;65132;52.088;5.402;2023-02-13T11:48:34;103783.31;;;15.86;53.92
76321;BME280;65132;52.088;5.402;2023-02-13T11:51:01;103789.91;;;18.13;48.41
76321;BME280;65132;52.088;5.402;2023-02-13T11:53:31;103785.59;;;19.73;43.61
76321;BME280;65132;52.088;5.402;2023-02-13T11:56:02;103778.63;;;20.52;42.08
76321;BME280;65132;52.088;5.402;2023-02-13T11:58:30;103784.22;;;17.11;48.60
76321;BME280;65132;52.088;5.402;2023-02-13T12:01:23;103780.75;;;17.56;48.54
76321;BME280;65132;52.088;5.402;2023-02-13T12:04:14;103783.91;;;16.04;52.89
76321;BME280;65132;52.088;5.402;2023-02-13T12:06:57;103773.06;;;16.15;53.13
76321;BME280;65132;52.088;5.402;2023-02-13T12:09:25;103771.16;;;15.90;53.51
76321;BME280;65132;52.088;5.402;2023-02-13T12:11:53;103769.75;;;16.72;51.02
76321;BME280;65132;52.088;5.402;2023-02-13T12:14:23;103770.25;;;15.52;54.78
76321;BME280;65132;52.088;5.402;2023-02-13T12:19:51;103755.09;;;15.61;54.66
76321;BME280;65132;52.088;5.402;2023-02-13T12:28:11;103756.75;;;15.10;55.53
76321;BME280;65132;52.088;5.402;2023-02-13T12:31:00;103750.63;;;17.56;50.36
76321;BME280;65132;52.088;5.402;2023-02-13T12:36:44;103746.94;;;17.44;49.93
76321;BME280;65132;52.088;5.402;2023-02-13T12:39:34;103749.03;;;20.74;41.70
76321;BME280;65132;52.088;5.402;2023-02-13T12:47:26;103744.63;;;17.97;47.01
76321;BME280;65132;52.088;5.402;2023-02-13T12:58:25;103741.41;;;18.14;46.67
76321;BME280;65132;52.088;5.402;2023-02-13T13:01:15;103729.63;;;18.46;46.24
76321;BME280;65132;52.088;5.402;2023-02-13T13:06:37;103729.63;;;18.35;47.21
76321;BME280;65132;52.088;5.402;2023-02-13T13:11:53;103723.56;;;16.07;52.13
76321;BME280;65132;52.088;5.402;2023-02-13T13:14:42;103720.22;;;17.24;50.18
76321;BME280;65132;52.088;5.402;2023-02-13T13:25:20;103702.06;;;18.59;45.86
76321;BME280;65132;52.088;5.402;2023-02-13T13:27:52;103684.59;;;19.14;43.78
76321;BME280;65132;52.088;5.402;2023-02-13T13:30:28;103689.69;;;17.98;45.23
76321;BME280;65132;52.088;5.402;2023-02-13T13:33:04;103695.44;;;17.49;47.15
76321;BME280;65132;52.088;5.402;2023-02-13T13:35:37;103678.97;;;17.95;47.71
76321;BME280;65132;52.088;5.402;2023-02-13T13:38:16;103690.88;;;17.61;47.84
76321;BME280;65132;52.088;5.402;2023-02-13T13:40:51;103680.59;;;17.75;46.17
76321;BME280;65132;52.088;5.402;2023-02-13T13:43:56;103678.50;;;19.42;42.21
76321;BME280;65132;52.088;5.402;2023-02-13T13:46:44;103669.81;;;18.40;44.36
76321;BME280;65132;52.088;5.402;2023-02-13T13:51:50;103674.53;;;17.25;47.33
76321;BME280;65132;52.088;5.402;2023-02-13T13:54:19;103671.91;;;16.65;49.79
76321;BME280;65132;52.088;5.402;2023-02-13T14:07:35;103669.72;;;17.05;47.38
76321;BME280;65132;52.088;5.402;2023-02-13T14:10:03;103659.25;;;17.22;47.68
76321;BME280;65132;52.088;5.402;2023-02-13T14:14:58;103661.31;;;18.97;42.97
76321;BME280;65132;52.088;5.402;2023-02-13T14:17:54;103656.56;;;18.34;45.55
76321;BME280;65132;52.088;5.402;2023-02-13T14:20:33;103659.28;;;18.56;46.32
76321;BME280;65132;52.088;5.402;2023-02-13T14:23:22;103644.00;;;19.69;42.13
76321;BME280;65132;52.088;5.402;2023-02-13T14:31:41;103640.44;;;18.63;45.84
76321;BME280;65132;52.088;5.402;2023-02-13T14:36:45;103640.47;;;17.63;47.09
76321;BME280;65132;52.088;5.402;2023-02-13T14:44:25;103644.66;;;17.22;49.56
76321;BME280;65132;52.088;5.402;2023-02-13T14:46:57;103637.91;;;17.15;50.10
76321;BME280;65132;52.088;5.402;2023-02-13T14:49:34;103642.34;;;18.62;46.71
76321;BME280;65132;52.088;5.402;2023-02-13T14:52:04;103632.28;;;17.85;48.12
76321;BME280;65132;52.088;5.402;2023-02-13T14:54:35;103632.03;;;18.11;48.20
76321;BME280;65132;52.088;5.402;2023-02-13T14:57:06;103636.03;;;17.04;50.03
76321;BME280;65132;52.088;5.402;2023-02-13T14:59:38;103643.91;;;16.00;53.53
76321;BME280;65132;52.088;5.402;2023-02-13T15:02:17;103640.22;;;15.24;55.21
76321;BME280;65132;52.088;5.402;2023-02-13T15:04:56;103632.34;;;14.54;58.02
76321;BME280;65132;52.088;5.402;2023-02-13T15:07:27;103642.44;;;13.55;61.36
76321;BME280;65132;52.088;5.402;2023-02-13T15:12:55;103642.25;;;13.29;63.43
76321;BME280;65132;52.088;5.402;2023-02-13T15:17:52;103636.03;;;13.27;63.10
76321;BME280;65132;52.088;5.402;2023-02-13T15:20:25;103650.00;;;12.75;64.84
76321;BME280;65132;52.088;5.402;2023-02-13T15:22:52;103649.94;;;12.46;66.81
76321;BME280;65132;52.088;5.402;2023-02-13T15:25:22;103648.44;;;12.40;67.19
76321;BME280;65132;52.088;5.402;2023-02-13T15:27:52;103644.31;;;12.33;67.10
76321;BME280;65132;52.088;5.402;2023-02-13T15:30:22;103645.38;;;12.31;67.22
76321;BME280;65132;52.088;5.402;2023-02-13T15:32:55;103640.06;;;12.29;67.08
76321;BME280;65132;52.088;5.402;2023-02-13T15:35:24;103636.63;;;12.26;67.70
76321;BME280;65132;52.088;5.402;2023-02-13T15:37:51;103641.44;;;12.21;68.15
76321;BME280;65132;52.088;5.402;2023-02-13T15:40:29;103633.44;;;12.02;68.67